Bisbee Douglas International Airport
KDUG : now visible

Airfield :











YOU CAN JOIN US ON...

 
LOGIN :

Register | Disclaimer

   EN    FR    IT 

 









Legend :    VFR   Marginal VFR   IFR   Intensive IFR   Very Intensive IFR
Visi :
Ceiling :
>= 8 km
>= 3000ft
5 to 8 km
1000 to 3000 ft
1500m to 5 km
500 to 1000 ft
800 to 1500m
200 to 500 ft
< 800m
< 200 ft
Symbols :   Thunderstorms  Fog  Heavy snow  Heavy precipitations  Wind > 20 kt






- Airport Elevation : 4154 ft


KDUG - Bisbee Douglas International

CURRENT METAR :
  • 290856Z AUTO 00000KT 10SM CLR 04/M03 A3005 RMK AO2 SLP146 T00391033 58009

EXPIRED METARs :
  • 290756Z AUTO 23004KT 10SM CLR 03/M03 A3007 RMK AO2 SLP157 T00281033
  • 290656Z AUTO 03007KT 10SM CLR 06/M04 A3007 RMK AO2 SLP156 T00561044 401721044

TAF KDUG
Valid from the 29 at 06:00 until the 30 at 06:00 UTC


290539Z 2906/3006 30007KT P6SM SKC
FM290800 VRB04KT P6SM BKN220
FM291900 22010G18KT P6SM BKN250



MET'MAP, your aeronautical weather chart ! - Copyright ORBIFLY December 2007 - Disclaimer

ORBIFLY MET'MAP TEAM :

Programming & Development : Alexandra Zaïnal
Concept & original design : Baudouin d'Aumeries
Assistance for programming : Marc-Olivier Méhu
Technical & hardware support : Manuel Goepfert

Contact : metmap@orbifly.com




SOURCES & CREDITS :

   NOAA       Earth
Advisory